createdAt,value
2022-09-01T00:00:59.017Z,58.97
2022-09-01T00:02:07.589Z,59.02
2022-09-01T00:03:16.576Z,59.17
2022-09-01T00:04:26.366Z,59.09
2022-09-01T00:05:35.064Z,58.74
2022-09-01T00:06:42.388Z,58.67
2022-09-01T00:07:47.053Z,58.37
2022-09-01T00:08:53.960Z,58.62
2022-09-01T00:09:58.593Z,58.83
2022-09-01T00:11:01.871Z,58.88
2022-09-01T00:12:09.742Z,58.72
2022-09-01T00:13:14.897Z,58.91
2022-09-01T00:14:30.201Z,58.73
2022-09-01T00:15:29.934Z,58.62
2022-09-01T00:16:35.131Z,58.48
2022-09-01T00:17:39.263Z,58.58
2022-09-01T00:18:45.482Z,58.16
2022-09-01T00:19:52.220Z,58.53
2022-09-01T00:20:59.528Z,58.56
2022-09-01T00:22:05.412Z,58.47
2022-09-01T00:23:09.048Z,58.36
2022-09-01T00:24:14.315Z,58.35
2022-09-01T00:25:20.700Z,58.58
2022-09-01T00:26:24.990Z,58.25
2022-09-01T00:27:30.906Z,58.14
2022-09-01T00:28:36.268Z,58.25
2022-09-01T00:29:44.051Z,58.27
2022-09-01T00:30:48.330Z,57.87
2022-09-01T00:31:52.967Z,57.90
2022-09-01T00:32:56.741Z,57.63
2022-09-01T00:34:01.346Z,57.70
2022-09-01T00:35:07.344Z,57.76
2022-09-01T00:36:15.231Z,57.76
2022-09-01T00:37:18.043Z,57.77
2022-09-01T00:38:22.658Z,57.57
2022-09-01T00:39:27.418Z,57.37
2022-09-01T00:40:33.057Z,57.15
2022-09-01T00:41:44.584Z,57.01
2022-09-01T00:42:49.943Z,56.96
2022-09-01T00:43:56.962Z,56.87
2022-09-01T00:44:59.734Z,56.54
2022-09-01T00:46:06.527Z,56.40
2022-09-01T00:47:12.397Z,56.25
2022-09-01T00:48:20.406Z,56.09
2022-09-01T00:49:37.487Z,56.01
2022-09-01T00:50:43.396Z,55.62
2022-09-01T00:51:55.860Z,55.21
2022-09-01T00:53:00.387Z,55.15
2022-09-01T00:54:07.346Z,55.16
2022-09-01T00:55:16.820Z,55.38
2022-09-01T00:56:24.669Z,55.16
2022-09-01T00:57:29.044Z,55.02
2022-09-01T00:58:33.292Z,55.01
2022-09-01T00:59:39.612Z,55.16
2022-09-01T01:00:44.789Z,55.42
2022-09-01T01:01:49.419Z,55.30
2022-09-01T01:02:58.639Z,55.07
2022-09-01T01:04:05.265Z,55.02
2022-09-01T01:05:12.616Z,55.17
2022-09-01T01:06:20.165Z,55.08
2022-09-01T01:07:24.203Z,55.11
2022-09-01T01:09:55.074Z,54.65
2022-09-01T01:10:58.154Z,54.63
2022-09-01T01:12:05.276Z,54.72
2022-09-01T01:13:15.715Z,54.64
2022-09-01T01:14:22.658Z,54.67
2022-09-01T01:15:27.105Z,54.45
2022-09-01T01:16:33.156Z,54.65
2022-09-01T01:17:37.037Z,54.71
2022-09-01T01:18:43.572Z,54.30
2022-09-01T01:20:10.881Z,54.38
2022-09-01T01:21:37.131Z,54.50
2022-09-01T01:23:17.822Z,54.36
2022-09-01T01:24:31.573Z,54.47
2022-09-01T01:25:53.798Z,54.24
2022-09-01T01:27:01.286Z,54.05
2022-09-01T01:28:19.597Z,54.08
2022-09-01T01:29:29.375Z,53.86
2022-09-01T01:30:38.602Z,54.04
2022-09-01T01:31:42.826Z,54.18
2022-09-01T01:32:50.878Z,54.17
2022-09-01T01:33:59.948Z,54.07
2022-09-01T01:35:04.441Z,53.91
2022-09-01T01:36:16.205Z,54.20
2022-09-01T01:37:26.713Z,54.45
2022-09-01T01:38:30.815Z,54.50
2022-09-01T01:39:35.384Z,54.30
2022-09-01T01:40:40.124Z,54.22
2022-09-01T01:41:49.240Z,53.92
2022-09-01T01:42:54.348Z,53.98
2022-09-01T01:43:59.121Z,53.84
2022-09-01T01:45:04.888Z,53.67
2022-09-01T01:46:10.126Z,53.40
2022-09-01T01:47:16.470Z,53.39
2022-09-01T01:48:23.160Z,53.69
2022-09-01T01:49:29.637Z,53.55
2022-09-01T01:50:37.141Z,53.59
2022-09-01T01:51:41.307Z,53.70
2022-09-01T01:52:45.615Z,53.22
2022-09-01T01:53:51.382Z,53.79
2022-09-01T01:54:59.320Z,53.79
2022-09-01T01:56:05.929Z,53.83
2022-09-01T01:57:12.585Z,53.70
2022-09-01T01:58:19.191Z,53.60
2022-09-01T01:59:25.814Z,53.49
2022-09-01T02:00:35.512Z,53.83
2022-09-01T02:01:39.864Z,53.87
2022-09-01T02:02:45.365Z,54.21
2022-09-01T02:03:49.001Z,54.16
2022-09-01T02:04:52.936Z,54.39
2022-09-01T02:05:58.301Z,54.24
2022-09-01T02:07:02.513Z,53.93
2022-09-01T02:08:10.882Z,53.93
2022-09-01T02:09:25.123Z,53.88
2022-09-01T02:10:34.651Z,54.32
2022-09-01T02:11:40.977Z,54.21
2022-09-01T02:12:47.753Z,54.35
2022-09-01T02:13:52.473Z,54.60
2022-09-01T02:15:00.158Z,54.83
2022-09-01T02:16:09.461Z,55.37
2022-09-01T02:17:12.447Z,55.35
2022-09-01T02:18:37.953Z,55.34
2022-09-01T02:19:42.798Z,55.45
2022-09-01T02:20:48.768Z,55.55
2022-09-01T02:21:53.882Z,55.56
2022-09-01T02:22:57.804Z,55.61
2022-09-01T02:24:04.240Z,55.47
2022-09-01T02:25:08.886Z,55.43
2022-09-01T02:26:17.540Z,55.66
2022-09-01T02:27:20.001Z,55.58
2022-09-01T02:28:29.222Z,55.46
2022-09-01T02:29:33.310Z,55.82
2022-09-01T02:30:39.761Z,55.56
2022-09-01T02:31:47.907Z,55.55
2022-09-01T02:32:51.593Z,55.70
2022-09-01T02:33:56.468Z,55.86
2022-09-01T02:35:00.824Z,55.96
2022-09-01T02:36:09.247Z,55.82
2022-09-01T02:37:13.130Z,56.01
2022-09-01T02:38:21.899Z,56.02
2022-09-01T02:39:29.275Z,55.96
2022-09-01T02:40:34.973Z,55.81
2022-09-01T02:41:38.745Z,55.69
2022-09-01T02:42:47.093Z,55.63
2022-09-01T02:43:52.654Z,55.65
2022-09-01T02:45:02.813Z,55.69
2022-09-01T02:46:07.666Z,56.02
2022-09-01T02:47:13.613Z,56.14
2022-09-01T02:48:20.354Z,56.10
2022-09-01T02:49:26.942Z,56.45
2022-09-01T02:50:33.944Z,56.54
2022-09-01T02:51:37.241Z,56.51
2022-09-01T02:52:43.977Z,56.66
2022-09-01T02:53:54.074Z,56.77
2022-09-01T02:55:00.487Z,56.89
2022-09-01T02:56:09.855Z,57.11
2022-09-01T02:57:13.627Z,57.38
2022-09-01T02:58:18.369Z,57.31
2022-09-01T02:59:28.546Z,57.11
2022-09-01T03:00:37.440Z,57.17
2022-09-01T03:01:45.293Z,57.29
2022-09-01T03:02:55.431Z,57.14
2022-09-01T03:04:05.480Z,57.03
2022-09-01T03:05:12.195Z,56.81
2022-09-01T03:06:19.947Z,56.96
2022-09-01T03:07:28.638Z,57.04
2022-09-01T03:08:37.010Z,56.91
2022-09-01T03:09:42.203Z,57.14
2022-09-01T03:10:46.748Z,57.00
2022-09-01T03:11:53.227Z,57.21
2022-09-01T03:13:07.242Z,57.05
2022-09-01T03:14:13.654Z,57.11
2022-09-01T03:15:17.962Z,57.35
2022-09-01T03:16:22.354Z,57.65
2022-09-01T03:17:25.485Z,57.56
2022-09-01T03:18:29.130Z,57.80
2022-09-01T03:19:36.089Z,57.85
2022-09-01T03:20:48.589Z,58.03
2022-09-01T03:21:52.489Z,58.10
2022-09-01T03:22:59.778Z,58.08
2022-09-01T03:24:05.948Z,58.15
2022-09-01T03:25:10.213Z,57.87
2022-09-01T03:26:15.875Z,57.67
2022-09-01T03:27:22.774Z,58.06
2022-09-01T03:28:26.961Z,57.83
2022-09-01T03:29:30.013Z,57.90
2022-09-01T03:30:40.689Z,58.50
2022-09-01T03:31:46.745Z,58.41
2022-09-01T03:32:55.007Z,58.28
2022-09-01T03:34:01.731Z,58.13
2022-09-01T03:35:09.100Z,58.11
2022-09-01T03:36:16.094Z,58.12
2022-09-01T03:37:20.361Z,58.05
2022-09-01T03:38:26.948Z,58.40
2022-09-01T03:39:41.941Z,58.66
2022-09-01T03:40:46.911Z,58.98
2022-09-01T03:41:51.180Z,59.11
2022-09-01T03:42:57.206Z,58.83
2022-09-01T03:44:00.274Z,58.93
2022-09-01T03:45:09.819Z,58.65
2022-09-01T03:46:16.971Z,58.50
2022-09-01T03:47:23.711Z,58.58
2022-09-01T03:48:32.716Z,58.38
2022-09-01T03:49:38.763Z,58.39
2022-09-01T03:50:47.805Z,58.16
2022-09-01T03:51:53.936Z,58.09
2022-09-01T03:53:02.094Z,58.01
2022-09-01T03:54:07.903Z,58.10
2022-09-01T03:55:12.683Z,57.91
2022-09-01T03:56:17.438Z,57.61
2022-09-01T03:57:20.391Z,58.32
2022-09-01T03:58:28.325Z,58.31
2022-09-01T03:59:33.253Z,58.00
2022-09-01T04:00:41.707Z,57.99
2022-09-01T04:01:47.302Z,57.78
2022-09-01T04:02:57.220Z,57.16
2022-09-01T04:04:01.089Z,57.31
2022-09-01T04:05:09.136Z,57.39
2022-09-01T04:06:14.474Z,57.08
2022-09-01T04:07:19.228Z,56.72
2022-09-01T04:08:33.043Z,56.56
2022-09-01T04:09:36.693Z,56.65
2022-09-01T04:10:54.472Z,56.49
2022-09-01T04:11:59.779Z,56.36
2022-09-01T04:13:04.085Z,55.85
2022-09-01T04:14:11.614Z,55.71
2022-09-01T04:15:18.095Z,55.79
2022-09-01T04:16:46.989Z,56.07
2022-09-01T04:18:10.363Z,56.05
2022-09-01T04:19:18.860Z,56.55
2022-09-01T04:20:23.820Z,57.21
2022-09-01T04:21:31.499Z,57.23
2022-09-01T04:22:40.535Z,56.87
2022-09-01T04:23:48.092Z,56.56
2022-09-01T04:24:56.356Z,56.69
2022-09-01T04:26:05.981Z,56.54
2022-09-01T04:27:10.229Z,56.35
2022-09-01T04:28:16.293Z,56.38
2022-09-01T04:29:28.263Z,55.97
2022-09-01T04:30:35.615Z,55.91
2022-09-01T04:31:42.669Z,56.12
2022-09-01T04:32:47.654Z,56.04
2022-09-01T04:33:56.104Z,56.18
2022-09-01T04:36:21.265Z,56.16
2022-09-01T04:37:25.844Z,56.27
2022-09-01T04:38:32.201Z,56.12
2022-09-01T04:39:36.252Z,55.83
2022-09-01T04:40:44.088Z,55.22
2022-09-01T04:41:50.137Z,55.14
2022-09-01T04:42:55.021Z,54.73
2022-09-01T04:44:02.759Z,54.64
2022-09-01T04:45:11.518Z,54.69
2022-09-01T04:46:18.725Z,54.49
2022-09-01T04:47:29.469Z,54.40
2022-09-01T04:48:34.690Z,54.28
2022-09-01T04:49:40.432Z,54.13
2022-09-01T04:50:45.477Z,53.96
2022-09-01T04:51:54.819Z,54.05
2022-09-01T04:53:04.873Z,53.52
2022-09-01T04:54:14.463Z,53.63
2022-09-01T04:55:21.822Z,53.31
2022-09-01T04:56:27.470Z,53.18
2022-09-01T04:57:36.601Z,52.96
2022-09-01T04:58:40.545Z,53.08
2022-09-01T04:59:46.713Z,51.99
2022-09-01T05:00:53.712Z,47.85
2022-09-01T05:01:59.504Z,43.99
2022-09-01T05:03:05.267Z,40.44
2022-09-01T05:04:32.705Z,39.22
2022-09-01T05:05:43.414Z,39.64
2022-09-01T05:06:50.523Z,42.10
2022-09-01T05:07:55.375Z,44.24
2022-09-01T05:09:06.290Z,44.79
2022-09-01T05:10:20.376Z,43.57
2022-09-01T05:11:26.047Z,44.00
2022-09-01T05:12:31.741Z,45.09
2022-09-01T05:13:36.253Z,46.92
2022-09-01T05:14:42.108Z,46.97
2022-09-01T05:15:48.417Z,47.19
2022-09-01T05:17:00.215Z,47.61
2022-09-01T05:18:08.440Z,48.16
2022-09-01T05:19:18.503Z,48.62
2022-09-01T05:20:23.998Z,48.46
2022-09-01T05:21:30.558Z,48.13
2022-09-01T05:22:37.542Z,47.92
2022-09-01T05:23:45.331Z,47.73
2022-09-01T05:24:55.387Z,47.39
2022-09-01T05:25:59.047Z,47.19
2022-09-01T05:27:06.749Z,46.77
2022-09-01T05:28:14.051Z,46.25
2022-09-01T05:29:22.198Z,46.75
2022-09-01T05:30:27.630Z,46.35
2022-09-01T05:31:35.521Z,45.94
2022-09-01T05:32:41.736Z,45.60
2022-09-01T05:33:48.997Z,44.88
2022-09-01T05:34:52.456Z,45.00
2022-09-01T05:36:01.835Z,44.26
2022-09-01T05:37:10.036Z,44.85
2022-09-01T05:38:15.149Z,44.30
2022-09-01T05:39:19.001Z,44.20
2022-09-01T05:40:24.674Z,45.03
2022-09-01T05:41:29.143Z,44.56
2022-09-01T05:42:35.267Z,44.28
2022-09-01T05:43:41.972Z,44.29
2022-09-01T05:44:45.253Z,44.12
2022-09-01T05:46:06.012Z,43.85
2022-09-01T05:47:01.417Z,43.13
2022-09-01T05:48:08.996Z,43.24
2022-09-01T05:49:15.517Z,42.58
2022-09-01T05:50:19.080Z,41.81
2022-09-01T05:51:46.079Z,42.26
2022-09-01T05:52:36.119Z,42.15
2022-09-01T05:53:40.079Z,42.68
2022-09-01T05:54:48.031Z,41.82
2022-09-01T05:55:59.030Z,40.83
2022-09-01T05:57:30.313Z,40.20
2022-09-01T05:58:15.613Z,40.10
2022-09-01T05:59:24.382Z,40.55
2022-09-01T06:00:27.159Z,40.24
2022-09-01T06:01:33.398Z,40.39
2022-09-01T06:02:39.641Z,40.06
2022-09-01T06:03:44.180Z,40.27
2022-09-01T06:04:50.643Z,40.27
2022-09-01T06:06:00.885Z,40.18
2022-09-01T06:07:08.440Z,40.44
2022-09-01T06:08:17.305Z,40.69
2022-09-01T06:09:23.031Z,40.75
2022-09-01T06:10:29.034Z,40.54
2022-09-01T06:36:45.010Z,40.96
2022-09-01T06:37:49.594Z,40.93
2022-09-01T06:38:55.477Z,40.54
2022-09-01T06:39:59.460Z,40.38
2022-09-01T06:41:11.286Z,39.50
2022-09-01T06:42:17.710Z,38.42
2022-09-01T06:43:24.390Z,37.66
2022-09-01T06:44:28.002Z,36.12
2022-09-01T06:45:42.557Z,34.74
2022-09-01T06:46:45.591Z,33.70
2022-09-01T06:47:59.998Z,32.26
2022-09-01T06:48:58.662Z,31.48
2022-09-01T06:50:03.715Z,30.72
2022-09-01T06:51:19.529Z,31.04
2022-09-01T06:52:20.063Z,30.78
2022-09-01T06:53:34.412Z,29.04
2022-09-01T06:54:34.862Z,28.46
2022-09-01T06:55:45.410Z,27.93
2022-09-01T06:56:51.713Z,27.11
2022-09-01T06:58:04.834Z,27.46
2022-09-01T06:59:06.703Z,27.44
2022-09-01T07:00:21.620Z,27.32
2022-09-01T07:01:26.884Z,27.50
2022-09-01T07:02:30.323Z,27.76
2022-09-01T07:03:51.531Z,27.61
2022-09-01T07:05:59.728Z,27.42
2022-09-01T07:08:31.452Z,29.13
2022-09-01T07:13:10.566Z,25.35
2022-09-01T07:14:18.079Z,24.66
2022-09-01T07:16:40.517Z,23.52
2022-09-01T07:17:43.624Z,22.44
2022-09-01T07:18:58.315Z,21.43
2022-09-01T07:19:56.039Z,21.06
2022-09-01T07:21:35.726Z,20.86
2022-09-01T07:22:35.230Z,21.83
2022-09-01T07:23:28.036Z,22.96
2022-09-01T07:24:32.109Z,23.34
2022-09-01T07:26:02.379Z,25.40
2022-09-01T07:26:53.957Z,26.30
2022-09-01T07:28:00.560Z,26.68
2022-09-01T07:29:07.142Z,26.96
2022-09-01T07:30:13.105Z,26.22
2022-09-01T07:32:48.514Z,24.55
2022-09-01T07:33:42.274Z,24.29
2022-09-01T07:34:46.558Z,25.22
2022-09-01T07:38:47.838Z,23.92
2022-09-01T07:42:31.249Z,25.99
2022-09-01T07:44:08.723Z,27.35
2022-09-01T07:45:26.685Z,26.26
2022-09-01T07:46:44.409Z,25.46
2022-09-01T07:47:53.591Z,23.88
2022-09-01T07:50:12.427Z,22.15
2022-09-01T07:52:05.615Z,22.43
2022-09-01T07:53:14.355Z,23.17
2022-09-01T07:54:17.904Z,22.62
2022-09-01T07:55:22.826Z,23.41
2022-09-01T07:56:27.377Z,24.18
2022-09-01T07:57:31.628Z,24.18
2022-09-01T07:58:36.860Z,24.79
2022-09-01T07:59:42.804Z,25.96
2022-09-01T08:00:52.848Z,27.40
2022-09-01T08:01:58.268Z,27.66
2022-09-01T08:03:03.824Z,27.45
2022-09-01T08:04:07.896Z,27.54
2022-09-01T08:05:15.417Z,28.60
2022-09-01T08:06:23.696Z,27.29
2022-09-01T08:07:30.562Z,25.58
2022-09-01T08:08:37.575Z,25.26
2022-09-01T08:09:45.859Z,26.08
2022-09-01T08:10:51.892Z,26.08
2022-09-01T08:12:02.331Z,26.46
2022-09-01T08:13:04.443Z,26.92
2022-09-01T08:14:12.404Z,26.39
2022-09-01T08:16:24.397Z,29.36
2022-09-01T08:17:51.125Z,30.34
2022-09-01T08:18:52.298Z,30.57
2022-09-01T08:19:45.111Z,31.16
2022-09-01T08:20:52.163Z,31.16
2022-09-01T08:22:10.251Z,31.45
2022-09-01T08:23:28.004Z,31.71
2022-09-01T08:24:32.343Z,32.08
2022-09-01T08:25:39.773Z,32.14
2022-09-01T08:26:47.327Z,32.53
2022-09-01T08:27:59.857Z,32.75
2022-09-01T08:28:58.620Z,33.34
2022-09-01T08:30:08.010Z,32.86
2022-09-01T08:31:14.727Z,33.02
2022-09-01T08:32:21.110Z,32.46
2022-09-01T08:33:26.807Z,31.40
2022-09-01T08:34:33.264Z,31.51
2022-09-01T08:35:39.667Z,30.73
2022-09-01T08:36:43.523Z,29.63
2022-09-01T08:37:48.347Z,28.76
2022-09-01T08:38:56.403Z,28.48
2022-09-01T08:40:01.930Z,27.79
2022-09-01T08:41:21.107Z,27.71
2022-09-01T08:42:35.963Z,27.48
2022-09-01T08:45:06.784Z,27.82
2022-09-01T08:47:49.233Z,27.22
2022-09-01T08:49:50.296Z,28.03
2022-09-01T08:51:22.421Z,28.51
2022-09-01T08:52:37.377Z,29.38
2022-09-01T08:55:31.451Z,29.96
2022-09-01T08:56:36.931Z,30.18
2022-09-01T08:57:46.302Z,29.50
2022-09-01T08:59:05.477Z,29.00
2022-09-01T09:00:22.014Z,28.36
2022-09-01T09:01:33.982Z,26.97
2022-09-01T09:02:42.243Z,26.97
2022-09-01T09:05:26.713Z,27.54
2022-09-01T09:06:51.010Z,27.18
2022-09-01T09:08:08.294Z,26.67
2022-09-01T09:09:09.925Z,26.94
2022-09-01T09:10:20.893Z,27.39
2022-09-01T09:11:32.839Z,27.17
2022-09-01T09:13:13.339Z,27.35
2022-09-01T09:14:28.921Z,27.40
2022-09-01T09:15:38.063Z,27.13
2022-09-01T09:16:44.549Z,27.10
2022-09-01T09:17:59.985Z,26.97
2022-09-01T09:19:10.748Z,27.16
2022-09-01T09:20:15.788Z,27.16
2022-09-01T09:21:31.267Z,27.46
2022-09-01T09:22:38.587Z,27.23
2022-09-01T09:25:00.720Z,26.64
2022-09-01T09:26:04.533Z,26.43
2022-09-01T09:27:09.854Z,25.66
2022-09-01T09:28:13.951Z,26.35
2022-09-01T09:29:17.739Z,26.64
2022-09-01T09:30:26.539Z,27.45
2022-09-01T09:31:39.292Z,27.73
2022-09-01T09:33:30.897Z,28.62
2022-09-01T09:34:09.118Z,28.04
2022-09-01T09:35:25.954Z,28.71
2022-09-01T09:36:37.236Z,28.31
2022-09-01T09:37:41.076Z,29.02
2022-09-01T09:38:45.307Z,29.78
2022-09-01T09:41:27.598Z,29.47
2022-09-01T09:42:34.697Z,29.01
2022-09-01T09:43:47.531Z,28.10
2022-09-01T09:44:55.462Z,28.37
2022-09-01T09:46:35.542Z,27.74
2022-09-01T09:47:49.537Z,27.26
2022-09-01T09:50:44.026Z,27.67
2022-09-01T09:51:51.952Z,27.67
2022-09-01T09:53:11.915Z,26.31
2022-09-01T09:54:31.373Z,27.01
2022-09-01T09:55:35.180Z,27.45
2022-09-01T09:56:41.095Z,26.79
2022-09-01T09:57:45.262Z,26.52
2022-09-01T09:58:51.423Z,26.91
2022-09-01T10:00:04.249Z,26.71
2022-09-01T10:01:27.529Z,26.53
2022-09-01T10:02:36.444Z,26.55
2022-09-01T10:03:50.157Z,27.14
2022-09-01T10:04:55.939Z,27.01
2022-09-01T10:06:00.791Z,26.59
2022-09-01T10:07:27.101Z,27.04
2022-09-01T10:08:35.633Z,26.98
2022-09-01T10:09:41.607Z,27.48
2022-09-01T10:10:58.011Z,29.06
2022-09-01T10:12:01.003Z,29.38
2022-09-01T10:13:13.795Z,28.87
2022-09-01T10:14:35.287Z,29.35
2022-09-01T10:15:31.684Z,29.01
2022-09-01T10:16:39.397Z,28.28
2022-09-01T10:17:45.379Z,28.42
2022-09-01T10:18:53.091Z,28.57
2022-09-01T10:20:01.217Z,28.65
2022-09-01T10:21:10.681Z,28.53
2022-09-01T10:22:15.171Z,28.36
2022-09-01T10:23:19.616Z,28.08
2022-09-01T10:24:44.724Z,28.18
2022-09-01T10:25:50.066Z,28.94
2022-09-01T10:26:58.506Z,28.65
2022-09-01T10:28:24.569Z,28.76
2022-09-01T10:29:47.440Z,28.67
2022-09-01T10:30:48.894Z,28.70
2022-09-01T10:32:14.779Z,28.48
2022-09-01T10:33:18.986Z,28.75
2022-09-01T10:34:19.324Z,29.17
2022-09-01T10:35:33.472Z,29.30
2022-09-01T10:36:37.797Z,28.94
2022-09-01T10:37:43.514Z,28.65
2022-09-01T10:38:53.798Z,28.46
2022-09-01T10:40:30.288Z,28.42
2022-09-01T10:42:00.593Z,28.65
2022-09-01T10:43:23.715Z,28.98
2022-09-01T10:44:36.076Z,28.90
2022-09-01T10:45:43.650Z,28.64
2022-09-01T10:46:51.458Z,28.76
2022-09-01T10:47:57.414Z,29.29
2022-09-01T10:49:04.425Z,29.70
2022-09-01T10:50:29.505Z,30.18
2022-09-01T10:51:50.630Z,30.13
2022-09-01T10:52:53.576Z,29.60
2022-09-01T10:54:02.089Z,29.94
2022-09-01T10:55:06.818Z,30.14
2022-09-01T10:56:36.582Z,29.64
2022-09-01T10:59:29.938Z,29.85
2022-09-01T11:00:37.413Z,29.41
2022-09-01T11:01:51.153Z,29.82
2022-09-01T11:03:30.582Z,30.18
2022-09-01T11:04:37.890Z,30.43
2022-09-01T11:06:18.704Z,30.74
2022-09-01T11:07:58.183Z,30.38
2022-09-01T11:08:53.702Z,30.81
2022-09-01T11:11:41.207Z,29.86
2022-09-01T11:13:02.608Z,29.72
2022-09-01T11:14:12.029Z,29.73
2022-09-01T11:15:20.650Z,29.83
2022-09-01T11:16:49.230Z,30.48
2022-09-01T11:17:43.013Z,31.21
2022-09-01T11:18:48.723Z,31.35
2022-09-01T11:21:32.592Z,30.76
2022-09-01T11:22:43.340Z,30.36
2022-09-01T11:23:47.922Z,30.81
2022-09-01T11:25:00.292Z,30.07
2022-09-01T11:26:20.222Z,30.09
2022-09-01T11:27:11.999Z,29.94
2022-09-01T11:28:33.056Z,29.42
2022-09-01T11:30:02.692Z,29.43
2022-09-01T11:31:13.034Z,29.50
2022-09-01T11:32:16.260Z,29.14
2022-09-01T11:33:34.006Z,28.77
2022-09-01T11:34:44.899Z,28.47
2022-09-01T11:35:56.017Z,28.45
2022-09-01T11:37:01.979Z,28.56
2022-09-01T11:38:08.338Z,29.52
2022-09-01T11:39:24.961Z,29.89
2022-09-01T11:40:33.037Z,30.43
2022-09-01T11:41:44.571Z,30.51
2022-09-01T11:42:52.876Z,30.60
2022-09-01T11:43:59.860Z,30.49
2022-09-01T11:45:11.303Z,29.92
2022-09-01T11:46:29.764Z,29.45
2022-09-01T11:47:40.013Z,29.77
2022-09-01T11:48:51.830Z,29.05
2022-09-01T11:49:59.843Z,29.19
2022-09-01T11:51:05.718Z,29.04
2022-09-01T11:52:12.914Z,29.47
2022-09-01T11:53:23.857Z,29.74
2022-09-01T11:54:29.353Z,29.83
2022-09-01T11:55:37.074Z,30.07
2022-09-01T11:56:41.727Z,30.07
2022-09-01T11:57:45.231Z,29.93
2022-09-01T11:58:48.944Z,29.87
2022-09-01T11:59:55.520Z,30.22
2022-09-01T12:01:14.269Z,30.10
2022-09-01T12:02:25.740Z,30.36
2022-09-01T12:03:32.063Z,30.04
2022-09-01T12:04:39.394Z,30.30
2022-09-01T12:05:48.521Z,30.24
2022-09-01T12:06:56.688Z,30.30
2022-09-01T12:08:06.322Z,29.08
2022-09-01T12:09:10.245Z,29.72
2022-09-01T12:10:23.604Z,29.76
2022-09-01T12:11:32.936Z,29.97
2022-09-01T12:12:40.316Z,29.97
2022-09-01T12:13:50.091Z,29.94
2022-09-01T12:16:22.761Z,30.05
2022-09-01T12:17:26.082Z,30.08
2022-09-01T12:18:36.321Z,29.70
2022-09-01T12:19:40.383Z,29.47
2022-09-01T12:22:05.564Z,28.89
2022-09-01T12:24:41.834Z,28.84
2022-09-01T12:25:46.625Z,28.93
2022-09-01T12:26:55.363Z,29.05
2022-09-01T12:28:05.334Z,28.81
2022-09-01T12:29:10.745Z,28.35
2022-09-01T12:30:16.449Z,28.69
2022-09-01T12:31:23.281Z,28.46
2022-09-01T12:32:26.911Z,28.63
2022-09-01T12:33:33.153Z,29.09
2022-09-01T12:34:44.354Z,28.72
2022-09-01T12:35:48.174Z,28.74
2022-09-01T12:37:28.914Z,28.71
2022-09-01T12:38:33.720Z,28.45
2022-09-01T12:39:44.786Z,28.93
2022-09-01T12:40:58.071Z,28.79
2022-09-01T12:42:10.870Z,28.70
2022-09-01T12:43:30.015Z,28.44
2022-09-01T12:45:48.618Z,28.95
2022-09-01T12:46:53.968Z,28.90
2022-09-01T12:47:57.746Z,28.90
2022-09-01T12:49:23.217Z,28.82
2022-09-01T12:50:31.598Z,28.43
2022-09-01T12:51:36.149Z,28.64
2022-09-01T12:52:52.379Z,28.86
2022-09-01T12:54:04.482Z,28.73
2022-09-01T12:55:46.981Z,28.87
2022-09-01T12:56:34.809Z,28.66
2022-09-01T12:57:46.106Z,28.23
2022-09-01T12:58:53.583Z,28.55
2022-09-01T13:00:09.826Z,28.99
2022-09-01T13:01:26.719Z,29.05
2022-09-01T13:02:38.255Z,29.30
2022-09-01T13:03:42.202Z,29.44
2022-09-01T13:04:45.306Z,28.86
2022-09-01T13:05:55.196Z,28.74
2022-09-01T13:07:05.739Z,28.70
2022-09-01T13:09:23.752Z,27.55
2022-09-01T13:10:39.495Z,27.33
2022-09-01T13:12:48.792Z,27.55
2022-09-01T13:13:54.431Z,27.68
2022-09-01T13:14:57.957Z,27.68
2022-09-01T13:16:05.774Z,27.51
2022-09-01T13:17:14.024Z,27.54
2022-09-01T13:18:19.265Z,27.72
2022-09-01T13:19:28.672Z,27.67
2022-09-01T13:20:31.833Z,27.56
2022-09-01T13:21:36.979Z,27.85
2022-09-01T13:23:59.110Z,27.40
2022-09-01T13:25:02.924Z,26.99
2022-09-01T13:26:10.350Z,27.55
2022-09-01T13:27:23.101Z,27.40
2022-09-01T13:29:29.481Z,27.39
2022-09-01T13:30:35.912Z,27.64
2022-09-01T13:32:16.473Z,27.74
2022-09-01T13:34:22.602Z,28.22
2022-09-01T13:35:04.333Z,28.07
2022-09-01T13:37:13.591Z,28.38
2022-09-01T13:38:20.857Z,28.85
2022-09-01T13:39:23.691Z,28.74
2022-09-01T13:40:28.259Z,28.60
2022-09-01T13:41:32.687Z,28.52
2022-09-01T13:42:38.901Z,28.53
2022-09-01T13:43:45.576Z,28.01
2022-09-01T13:44:55.139Z,27.83
2022-09-01T13:45:55.470Z,27.04
2022-09-01T13:46:59.608Z,27.08
2022-09-01T13:48:19.544Z,26.88
2022-09-01T13:50:23.717Z,26.73
2022-09-01T13:51:28.214Z,26.59
2022-09-01T13:52:32.959Z,26.69
2022-09-01T13:53:38.869Z,26.52
2022-09-01T13:54:44.721Z,26.43
2022-09-01T13:55:50.183Z,26.36
2022-09-01T13:56:55.418Z,26.69
2022-09-01T13:58:03.125Z,26.76
2022-09-01T13:59:15.560Z,27.13
2022-09-01T14:00:24.937Z,27.09
2022-09-01T14:01:29.349Z,27.35
2022-09-01T14:02:36.020Z,26.90
2022-09-01T14:03:39.776Z,27.16
2022-09-01T14:04:44.679Z,27.12
2022-09-01T14:05:49.992Z,27.23
2022-09-01T14:06:54.636Z,27.31
2022-09-01T14:08:02.715Z,27.64
2022-09-01T14:09:06.414Z,27.75
2022-09-01T14:10:11.955Z,27.67
2022-09-01T14:11:21.760Z,27.62
2022-09-01T14:12:27.335Z,27.56
2022-09-01T14:13:33.233Z,27.56
2022-09-01T14:15:45.417Z,27.57
2022-09-01T14:16:50.092Z,27.78
2022-09-01T14:17:57.125Z,27.52
2022-09-01T14:19:02.096Z,27.64
2022-09-01T14:20:08.837Z,27.56
2022-09-01T14:21:16.478Z,27.43
2022-09-01T14:22:27.325Z,27.34
2022-09-01T14:23:32.404Z,27.08
2022-09-01T14:24:40.313Z,27.58
2022-09-01T14:25:48.457Z,27.75
2022-09-01T14:26:53.552Z,27.54
2022-09-01T14:27:57.553Z,27.81
2022-09-01T14:29:04.455Z,28.33
2022-09-01T14:30:14.627Z,28.20
2022-09-01T14:31:20.120Z,28.46
2022-09-01T14:32:25.955Z,28.41
2022-09-01T14:33:29.288Z,28.50
2022-09-01T14:34:33.149Z,28.58
2022-09-01T14:35:44.020Z,28.42
2022-09-01T14:36:49.459Z,28.54
2022-09-01T14:37:55.806Z,28.88
2022-09-01T14:39:00.056Z,28.72
2022-09-01T14:40:05.568Z,28.45
2022-09-01T14:41:09.534Z,28.33
2022-09-01T14:42:13.352Z,28.12
2022-09-01T14:44:21.611Z,27.65
2022-09-01T14:45:28.541Z,27.63
2022-09-01T14:46:34.791Z,27.38
2022-09-01T14:47:38.938Z,27.25
2022-09-01T14:48:42.961Z,27.15
2022-09-01T14:49:48.223Z,26.85
2022-09-01T14:50:52.278Z,26.79
2022-09-01T14:52:12.108Z,26.83
2022-09-01T14:53:06.438Z,26.68
2022-09-01T14:54:09.899Z,26.81
2022-09-01T14:55:13.684Z,26.90
2022-09-01T14:56:19.937Z,26.98
2022-09-01T14:57:36.599Z,26.44
2022-09-01T15:24:10.097Z,25.97
2022-09-01T15:25:16.849Z,26.10
2022-09-01T15:26:24.511Z,26.23
2022-09-01T15:27:29.264Z,26.35
2022-09-01T15:28:32.971Z,26.41
2022-09-01T15:29:37.627Z,26.31
2022-09-01T15:30:47.702Z,26.20
2022-09-01T15:31:52.294Z,26.04
2022-09-01T15:32:56.464Z,25.77
2022-09-01T15:34:02.347Z,26.01
2022-09-01T15:35:07.791Z,26.14
2022-09-01T15:36:18.969Z,26.16
2022-09-01T15:37:24.578Z,26.09
2022-09-01T15:38:30.629Z,26.12
2022-09-01T15:39:37.722Z,26.19
2022-09-01T15:40:45.085Z,25.94
2022-09-01T15:41:52.397Z,26.25
2022-09-01T15:42:59.548Z,26.27
2022-09-01T15:44:06.664Z,26.21
2022-09-01T15:45:14.792Z,26.36
2022-09-01T15:46:20.541Z,26.25
2022-09-01T15:47:24.750Z,26.17
2022-09-01T15:48:29.506Z,26.46
2022-09-01T15:49:32.230Z,26.51
2022-09-01T15:50:36.754Z,26.51
2022-09-01T15:51:44.142Z,26.47
2022-09-01T15:52:51.679Z,26.51
2022-09-01T15:53:59.139Z,26.98
2022-09-01T15:55:03.661Z,26.73
2022-09-01T15:56:07.469Z,26.89
2022-09-01T15:57:11.926Z,27.49
2022-09-01T15:58:18.589Z,27.14
2022-09-01T15:59:23.797Z,27.27
2022-09-01T16:00:30.413Z,27.18
2022-09-01T16:01:38.233Z,26.82
2022-09-01T16:02:42.263Z,27.05
2022-09-01T16:03:47.039Z,27.40
2022-09-01T16:04:51.639Z,27.39
2022-09-01T16:05:55.181Z,27.35
2022-09-01T16:06:57.769Z,27.55
2022-09-01T16:08:06.853Z,27.31
2022-09-01T16:09:11.612Z,27.55
2022-09-01T16:10:16.893Z,27.55
2022-09-01T16:11:24.091Z,28.16
2022-09-01T16:12:28.858Z,27.77
2022-09-01T16:13:32.529Z,27.68
2022-09-01T16:14:37.287Z,27.73
2022-09-01T16:15:49.131Z,28.11
2022-09-01T16:17:05.552Z,27.83
2022-09-01T16:18:18.917Z,28.08
2022-09-01T16:20:58.693Z,28.54
2022-09-01T16:22:22.738Z,28.49
2022-09-01T16:23:30.496Z,28.53